Terminal Aerodrome Forecast
Issued by NWS Greer, SC

Home | Current Version | Previous Version | Text Only | Print | Product List | Glossary On
Versions: 1 2 3 4 5 6 7 8 9 10 11 12 13 14 15 16 17 18 19 20 21 22 23 24 25 26 27 28 29 30 31 32 33 34 35 36 37 38 39 40 41 42 43 44 45
000
FTUS42 KGSP 010700 AAA
TAFAVL
TAF AMD
KAVL 010737Z 0108/0206 00000KT 5SM BR SCT002
      TEMPO 0108/0110 2SM BR
     FM011000 00000KT 3SM BR SCT005
      TEMPO 0110/0113 1SM BR BKN005
     FM011400 00000KT P6SM BKN015
     FM011500 34005KT P6SM SCT060
     FM012200 17005KT P6SM FEW060=

USA.gov is the U.S. government's official web portal to all federal, state and local government web resources and services.